Pallada — UDUI — position and weather

sailwx.info

Track history (hours):
 
Tides and Currents Weather Stations Pressure Air Temp Water Temp Dewpoint Dewpoint Depression Visibility Wind Speed Wind Dir Waves Ship Positions

Pallada

Last reported at 2019-May-12 15:20 UTC. Time now 2019-Jun-16 14:35 UTC.
Position N 35°56' E 120°47'.
Warning: this ship's position is 34 days out of date.

Length 109 m; draft 6.9 m.

Type: Sailing vessel. MMSI: 273815200.

Date/timePositionNaut miles runAvg speedWind from/ knotsBaromVisibWave heightAir tempDewpointWater temp
2019-May-12 15:20N 35°56' E 120°47'2 5.0
2019-May-12 14:59N 35°55' E 120°48'6 5.1
2019-May-12 13:49N 35°49' E 120°51'2 5.1
2019-May-12 13:29N 35°48' E 120°52'3 5.2
2019-May-12 12:54N 35°45' E 120°54'4 4.7
2019-May-12 11:59N 35°42' E 120°58'2 4.4
2019-May-12 11:28N 35°42' E 121°01'3 2.3
2019-May-12 10:17N 35°43' E 121°04'0 0.0
2019-May-11 14:00N 35°43' E 121°05'0 0.1
2019-May-11 13:09N 35°43' E 121°05'0 0.0
2019-May-11 12:57N 35°43' E 121°05'0 0.0
2019-May-11 12:15N 35°43' E 121°05'0 0.0
2019-May-11 11:24N 35°43' E 121°05'0 1.0
2019-May-11 10:58N 35°43' E 121°05'0 1.0
2019-May-11 10:30N 35°42' E 121°05'34 2.8
2019-May-10 22:22N 35°25' E 121°42'0 1.1
2019-May-10 21:59N 35°25' E 121°42'1 1.1
2019-May-10 21:17N 35°25' E 121°43'0 1.1
2019-May-10 20:54N 35°24' E 121°43'1 0.9
2019-May-10 19:53N 35°24' E 121°44'0 0.8
2019-May-10 19:23N 35°23' E 121°44'0 0.7
2019-May-10 19:01N 35°23' E 121°44'0 0.6
2019-May-10 18:16N 35°22' E 121°44'0 0.6
2019-May-10 17:54N 35°22' E 121°43'0 0.6
2019-May-10 17:28N 35°22' E 121°43'0 0.6
2019-May-10 16:56N 35°22' E 121°43'0 0.5
2019-May-10 16:25N 35°22' E 121°43'0 0.4
2019-May-10 15:35N 35°22' E 121°42'0 0.1
2019-May-10 14:42N 35°22' E 121°42'0 0.1
2019-May-10 14:11N 35°22' E 121°42'1 1.0
2019-May-10 13:25N 35°22' E 121°43'17 3.5
2019-May-10 08:40N 35°14' E 122°01'1 2.8
2019-May-10 08:29N 35°13' E 122°01'4 3.3
2019-May-10 07:16N 35°11' E 122°05'2 3.5
2019-May-10 06:39N 35°10' E 122°07'1 3.3
2019-May-10 06:30N 35°09' E 122°08'2 1.6
2019-May-10 05:10N 35°07' E 122°09'0 0.3
2019-May-10 04:32N 35°07' E 122°09'0 1.5
2019-May-10 04:30N 35°07' E 122°09'1 0.3
2019-May-09 23:33N 35°07' E 122°10'1 0.7
2019-May-09 22:01N 35°06' E 122°11'0 1.1
2019-May-09 22:01N 35°06' E 122°11'0 0.9
2019-May-09 21:30N 35°06' E 122°12'2 0.7
2019-May-09 18:38N 35°04' E 122°12'0 0.7
2019-May-09 18:30N 35°04' E 122°12'0 0.6
2019-May-09 17:59N 35°04' E 122°12'0 0.5
2019-May-09 17:28N 35°03' E 122°12'1 0.5
2019-May-09 15:44N 35°03' E 122°11'1 0.7
2019-May-09 14:53N 35°04' E 122°10'1 0.6
2019-May-09 13:33N 35°04' E 122°10'0 0.2
2019-May-09 13:30N 35°04' E 122°10'1 0.4
2019-May-09 12:11N 35°05' E 122°09'0 0.3
2019-May-09 12:00N 35°05' E 122°09'0 0.2
2019-May-09 10:07N 35°04' E 122°09'0 0.3
2019-May-09 09:54N 35°04' E 122°09'0 0.4
2019-May-09 09:30N 35°04' E 122°09'0 0.6
2019-May-09 09:00N 35°04' E 122°09'0 0.7
2019-May-09 08:30N 35°03' E 122°09'0 0.7
2019-May-09 08:01N 35°03' E 122°09'0 0.6
2019-May-09 07:31N 35°03' E 122°09'0 0.6
2019-May-09 07:01N 35°03' E 122°09'0 0.5
2019-May-09 06:30N 35°02' E 122°09'0 0.5
2019-May-09 06:01N 35°02' E 122°09'0 0.5
2019-May-09 05:30N 35°02' E 122°09'0 0.4
2019-May-09 04:55N 35°02' E 122°08'0 0.3
2019-May-09 04:19N 35°02' E 122°08'0 0.2
2019-May-09 03:59N 35°02' E 122°08'0 0.4
2019-May-09 03:30N 35°02' E 122°08'0 0.3
2019-May-09 02:46N 35°02' E 122°08'5 0.2
2019-May-08 00:40N 34°57' E 122°10'0 0.5
2019-May-08 00:29N 34°57' E 122°10'0 0.3
2019-May-07 23:59N 34°57' E 122°10'0 0.2
2019-May-07 23:31N 34°58' E 122°10'0 0.2
2019-May-07 22:51N 34°58' E 122°10'14 4.1
2019-May-07 19:28N 34°44' E 122°14'2 5.0
2019-May-07 18:58N 34°42' E 122°15'3 5.0
2019-May-07 18:28N 34°39' E 122°15'2 4.9
2019-May-07 18:00N 34°37' E 122°16'2 4.7
2019-May-07 17:30N 34°35' E 122°16'2 4.5
2019-May-07 17:00N 34°32' E 122°17'2 4.3
2019-May-07 16:28N 34°30' E 122°17'3 3.9
2019-May-07 15:47N 34°27' E 122°18'29 3.4
2019-May-07 07:21N 33°59' E 122°24'1 2.6
2019-May-07 06:55N 33°58' E 122°24'6 0.7
2019-May-06 22:30N 34°04' E 122°25'0 0.9
2019-May-06 22:00N 34°04' E 122°25'0 0.7
2019-May-06 21:17N 34°05' E 122°24'0 0.4
2019-May-06 20:57N 34°05' E 122°24'0 0.5
2019-May-06 20:28N 34°04' E 122°24'61 1.7
2019-May-05 08:59N 33°47' E 123°34'1 0.6
2019-May-05 07:53N 33°47' E 123°33'1 0.6
2019-May-05 06:51N 33°47' E 123°32'  
Track history (hours):
 
Tides and Currents Weather Stations Pressure Air Temp Water Temp Dewpoint Dewpoint Depression Visibility Wind Speed Wind Dir Waves Ship Positions

Pallada

Last reported at 2019-May-12 15:20 UTC. Time now 2019-Jun-16 14:35 UTC.
Position N 35°56' E 120°47'.
Warning: this ship's position is 34 days out of date.

Length 109 m; draft 6.9 m.

Type: Sailing vessel. MMSI: 273815200.

Date/timePositionNaut miles runAvg speedWind from/ knotsBaromVisibWave heightAir tempDewpointWater temp
2019-May-12 15:20N 35°56' E 120°47'2 5.0
2019-May-12 14:59N 35°55' E 120°48'6 5.1
2019-May-12 13:49N 35°49' E 120°51'2 5.1
2019-May-12 13:29N 35°48' E 120°52'3 5.2
2019-May-12 12:54N 35°45' E 120°54'4 4.7
2019-May-12 11:59N 35°42' E 120°58'2 4.4
2019-May-12 11:28N 35°42' E 121°01'3 2.3
2019-May-12 10:17N 35°43' E 121°04'0 0.0
2019-May-11 14:00N 35°43' E 121°05'0 0.1
2019-May-11 13:09N 35°43' E 121°05'0 0.0
2019-May-11 12:57N 35°43' E 121°05'0 0.0
2019-May-11 12:15N 35°43' E 121°05'0 0.0
2019-May-11 11:24N 35°43' E 121°05'0 1.0
2019-May-11 10:58N 35°43' E 121°05'0 1.0
2019-May-11 10:30N 35°42' E 121°05'34 2.8
2019-May-10 22:22N 35°25' E 121°42'0 1.1
2019-May-10 21:59N 35°25' E 121°42'1 1.1
2019-May-10 21:17N 35°25' E 121°43'0 1.1
2019-May-10 20:54N 35°24' E 121°43'1 0.9
2019-May-10 19:53N 35°24' E 121°44'0 0.8
2019-May-10 19:23N 35°23' E 121°44'0 0.7
2019-May-10 19:01N 35°23' E 121°44'0 0.6
2019-May-10 18:16N 35°22' E 121°44'0 0.6
2019-May-10 17:54N 35°22' E 121°43'0 0.6
2019-May-10 17:28N 35°22' E 121°43'0 0.6
2019-May-10 16:56N 35°22' E 121°43'0 0.5
2019-May-10 16:25N 35°22' E 121°43'0 0.4
2019-May-10 15:35N 35°22' E 121°42'0 0.1
2019-May-10 14:42N 35°22' E 121°42'0 0.1
2019-May-10 14:11N 35°22' E 121°42'1 1.0
2019-May-10 13:25N 35°22' E 121°43'17 3.5
2019-May-10 08:40N 35°14' E 122°01'1 2.8
2019-May-10 08:29N 35°13' E 122°01'4 3.3
2019-May-10 07:16N 35°11' E 122°05'2 3.5
2019-May-10 06:39N 35°10' E 122°07'1 3.3
2019-May-10 06:30N 35°09' E 122°08'2 1.6
2019-May-10 05:10N 35°07' E 122°09'0 0.3
2019-May-10 04:32N 35°07' E 122°09'0 1.5
2019-May-10 04:30N 35°07' E 122°09'1 0.3
2019-May-09 23:33N 35°07' E 122°10'1 0.7
2019-May-09 22:01N 35°06' E 122°11'0 1.1
2019-May-09 22:01N 35°06' E 122°11'0 0.9
2019-May-09 21:30N 35°06' E 122°12'2 0.7
2019-May-09 18:38N 35°04' E 122°12'0 0.7
2019-May-09 18:30N 35°04' E 122°12'0 0.6
2019-May-09 17:59N 35°04' E 122°12'0 0.5
2019-May-09 17:28N 35°03' E 122°12'1 0.5
2019-May-09 15:44N 35°03' E 122°11'1 0.7
2019-May-09 14:53N 35°04' E 122°10'1 0.6
2019-May-09 13:33N 35°04' E 122°10'0 0.2
2019-May-09 13:30N 35°04' E 122°10'1 0.4
2019-May-09 12:11N 35°05' E 122°09'0 0.3
2019-May-09 12:00N 35°05' E 122°09'0 0.2
2019-May-09 10:07N 35°04' E 122°09'0 0.3
2019-May-09 09:54N 35°04' E 122°09'0 0.4
2019-May-09 09:30N 35°04' E 122°09'0 0.6
2019-May-09 09:00N 35°04' E 122°09'0 0.7
2019-May-09 08:30N 35°03' E 122°09'0 0.7
2019-May-09 08:01N 35°03' E 122°09'0 0.6
2019-May-09 07:31N 35°03' E 122°09'0 0.6
2019-May-09 07:01N 35°03' E 122°09'0 0.5
2019-May-09 06:30N 35°02' E 122°09'0 0.5
2019-May-09 06:01N 35°02' E 122°09'0 0.5
2019-May-09 05:30N 35°02' E 122°09'0 0.4
2019-May-09 04:55N 35°02' E 122°08'0 0.3
2019-May-09 04:19N 35°02' E 122°08'0 0.2
2019-May-09 03:59N 35°02' E 122°08'0 0.4
2019-May-09 03:30N 35°02' E 122°08'0 0.3
2019-May-09 02:46N 35°02' E 122°08'5 0.2
2019-May-08 00:40N 34°57' E 122°10'0 0.5
2019-May-08 00:29N 34°57' E 122°10'0 0.3
2019-May-07 23:59N 34°57' E 122°10'0 0.2
2019-May-07 23:31N 34°58' E 122°10'0 0.2
2019-May-07 22:51N 34°58' E 122°10'14 4.1
2019-May-07 19:28N 34°44' E 122°14'2 5.0
2019-May-07 18:58N 34°42' E 122°15'3 5.0
2019-May-07 18:28N 34°39' E 122°15'2 4.9
2019-May-07 18:00N 34°37' E 122°16'2 4.7
2019-May-07 17:30N 34°35' E 122°16'2 4.5
2019-May-07 17:00N 34°32' E 122°17'2 4.3
2019-May-07 16:28N 34°30' E 122°17'3 3.9
2019-May-07 15:47N 34°27' E 122°18'29 3.4
2019-May-07 07:21N 33°59' E 122°24'1 2.6
2019-May-07 06:55N 33°58' E 122°24'6 0.7
2019-May-06 22:30N 34°04' E 122°25'0 0.9
2019-May-06 22:00N 34°04' E 122°25'0 0.7
2019-May-06 21:17N 34°05' E 122°24'0 0.4
2019-May-06 20:57N 34°05' E 122°24'0 0.5
2019-May-06 20:28N 34°04' E 122°24'61 1.7
2019-May-05 08:59N 33°47' E 123°34'1 0.6
2019-May-05 07:53N 33°47' E 123°33'1 0.6
2019-May-05 06:51N 33°47' E 123°32'  

Dump ship's entire track history